Time;durP1;ratioP1;P1;durP2;ratioP2;P2;SDS_P1;SDS_P2;PMS_P1;PMS_P2;Temp;Humidity;BMP_temperature;BMP_pressure;BME280_temperature;BME280_humidity;BME280_pressure;Samples;Min_cycle;Max_cycle;Signal;HPM_P1;HPM_P2
2022/06/23 00:02:14;;;;;;;0.68;0.50;;;;;;;;;;6069351;23;20021;-88
2022/06/23 00:04:42;;;;;;;0.20;0.10;;;;;;;;;;6068408;23;20014;-88
2022/06/23 00:07:17;;;;;;;0.20;0.10;;;;;;;;;;6068927;23;20096;-87
2022/06/23 00:09:46;;;;;;;0.20;0.10;;;;;;;;;;6072105;23;20047;-88
2022/06/23 00:12:32;;;;;;;0.20;0.10;;;;;;;;;;6068872;23;20360;-88
2022/06/23 00:15:02;;;;;;;0.20;0.10;;;;;;;;;;6069997;23;20049;-87
2022/06/23 00:17:31;;;;;;;0.20;0.10;;;;;;;;;;6069778;23;20024;-88
2022/06/23 00:19:59;;;;;;;0.20;0.10;;;;;;;;;;6068360;23;20057;-87
2022/06/23 00:22:27;;;;;;;0.20;0.10;;;;;;;;;;6069683;23;20436;-88
2022/06/23 00:24:57;;;;;;;0.20;0.10;;;;;;;;;;6067892;23;20018;-88
2022/06/23 00:27:30;;;;;;;0.20;0.10;;;;;;;;;;6068774;23;20440;-89
2022/06/23 00:29:59;;;;;;;0.20;0.10;;;;;;;;;;6068655;23;20014;-88
2022/06/23 00:32:26;;;;;;;0.20;0.10;;;;;;;;;;6067184;23;20390;-89
2022/06/23 00:35:00;;;;;;;0.20;0.13;;;;;;;;;;6068475;23;20069;-89
2022/06/23 00:37:28;;;;;;;0.20;0.10;;;;;;;;;;6068976;23;20126;-89
2022/06/23 00:39:57;;;;;;;0.20;0.10;;;;;;;;;;6067032;23;20014;-88
2022/06/23 00:42:34;;;;;;;0.20;0.10;;;;;;;;;;6070242;23;20013;-87
2022/06/23 00:45:03;;;;;;;0.20;0.10;;;;;;;;;;6067846;23;20010;-86
2022/06/23 00:47:45;;;;;;;0.20;0.10;;;;;;;;;;6069351;23;20038;-89
2022/06/23 00:50:27;;;;;;;0.20;0.10;;;;;;;;;;6069655;23;20014;-87
2022/06/23 00:52:59;;;;;;;0.20;0.10;;;;;;;;;;6070006;23;20467;-88
2022/06/23 00:55:45;;;;;;;0.20;0.10;;;;;;;;;;6065527;23;20098;-89
2022/06/23 00:58:21;;;;;;;0.20;0.10;;;;;;;;;;6068124;23;20475;-88
2022/06/23 01:00:52;;;;;;;0.20;0.10;;;;;;;;;;6067713;23;20025;-88
2022/06/23 01:03:28;;;;;;;0.20;0.10;;;;;;;;;;6066484;23;20036;-90
2022/06/23 01:05:57;;;;;;;0.55;0.30;;;;;;;;;;6067369;23;20028;-88
2022/06/23 01:08:29;;;;;;;0.20;0.10;;;;;;;;;;6066401;23;20026;-88
2022/06/23 01:11:06;;;;;;;0.20;0.10;;;;;;;;;;6068122;23;20495;-89
2022/06/23 01:13:43;;;;;;;0.20;0.10;;;;;;;;;;6069063;23;20049;-88
2022/06/23 01:16:28;;;;;;;0.30;0.30;;;;;;;;;;6032268;23;20446;-88
2022/06/23 01:19:03;;;;;;;0.20;0.20;;;;;;;;;;5990140;23;20017;-89
2022/06/23 01:21:37;;;;;;;0.20;0.20;;;;;;;;;;6010862;23;20022;-87
2022/06/23 01:24:03;;;;;;;0.20;0.05;;;;;;;;;;6005800;23;20022;-88
2022/06/23 01:30:09;;;;;;;0.30;0.22;;;;;;;;;;6028114;23;20114;-88
2022/06/23 01:32:39;;;;;;;0.68;0.30;;;;;;;;;;6023931;23;20018;-90
2022/06/23 01:35:09;;;;;;;0.20;0.10;;;;;;;;;;6007940;23;20015;-87
2022/06/23 01:37:35;;;;;;;0.20;0.15;;;;;;;;;;6008862;23;20437;-88
2022/06/23 01:40:21;;;;;;;0.20;0.10;;;;;;;;;;6010717;23;20097;-88
2022/06/23 01:42:56;;;;;;;0.20;0.10;;;;;;;;;;6009471;23;20093;-89
2022/06/23 01:45:48;;;;;;;0.28;0.25;;;;;;;;;;6011386;23;20019;-88
2022/06/23 01:48:51;;;;;;;0.20;0.10;;;;;;;;;;6064221;23;20054;-90
2022/06/23 01:51:27;;;;;;;0.43;0.40;;;;;;;;;;6093339;23;20053;-89
2022/06/23 01:53:57;;;;;;;0.20;0.10;;;;;;;;;;6070336;23;20021;-87
2022/06/23 01:56:27;;;;;;;1.45;0.47;;;;;;;;;;6070236;23;20036;-89
2022/06/23 01:59:06;;;;;;;0.20;0.10;;;;;;;;;;6071056;23;20017;-90
2022/06/23 02:01:32;;;;;;;0.20;0.20;;;;;;;;;;6069773;23;20010;-88
2022/06/23 02:04:12;;;;;;;0.40;0.40;;;;;;;;;;6070665;23;20038;-90
2022/06/23 02:06:42;;;;;;;0.38;0.38;;;;;;;;;;6070894;23;20455;-89
2022/06/23 02:09:16;;;;;;;0.28;0.25;;;;;;;;;;6070764;23;20480;-86
2022/06/23 02:11:47;;;;;;;0.55;0.50;;;;;;;;;;6070236;23;20018;-89
2022/06/23 02:14:40;;;;;;;0.20;0.10;;;;;;;;;;6080328;23;20013;-91
2022/06/23 02:17:09;;;;;;;0.20;0.20;;;;;;;;;;6070232;23;20017;-90
2022/06/23 02:19:41;;;;;;;0.20;0.00;;;;;;;;;;6071806;23;20176;-88
2022/06/23 02:22:16;;;;;;;0.20;0.10;;;;;;;;;;6070352;23;20393;-89
2022/06/23 02:24:52;;;;;;;0.20;0.10;;;;;;;;;;6070353;23;20379;-89
2022/06/23 02:27:42;;;;;;;0.55;0.55;;;;;;;;;;6074454;23;20116;-88
2022/06/23 02:30:30;;;;;;;0.20;0.10;;;;;;;;;;6070427;23;20025;-87
2022/06/23 02:33:37;;;;;;;0.20;0.10;;;;;;;;;;6072281;23;20100;-90
2022/06/23 02:36:13;;;;;;;0.20;0.10;;;;;;;;;;6048646;23;20026;-89
2022/06/23 02:38:45;;;;;;;0.20;0.10;;;;;;;;;;6071303;23;20458;-88
2022/06/23 02:41:19;;;;;;;0.20;0.10;;;;;;;;;;6070692;23;20014;-89
2022/06/23 02:44:04;;;;;;;0.20;0.17;;;;;;;;;;6070366;23;20193;-88
2022/06/23 02:46:32;;;;;;;0.20;0.10;;;;;;;;;;6069940;23;20014;-89
2022/06/23 02:49:04;;;;;;;0.20;0.10;;;;;;;;;;6074239;23;20018;-89
2022/06/23 02:51:52;;;;;;;0.20;0.10;;;;;;;;;;6073516;23;20046;-89
2022/06/23 02:57:51;;;;;;;0.20;0.17;;;;;;;;;;6089648;23;20025;-89
2022/06/23 03:00:42;;;;;;;0.40;0.40;;;;;;;;;;6076786;23;20025;-89
2022/06/23 03:03:12;;;;;;;0.20;0.10;;;;;;;;;;6071161;23;20022;-89
2022/06/23 03:06:10;;;;;;;0.20;0.10;;;;;;;;;;6069802;23;20092;-89
2022/06/23 03:09:09;;;;;;;0.20;0.20;;;;;;;;;;6082258;23;20049;-88
2022/06/23 03:11:58;;;;;;;0.20;0.10;;;;;;;;;;6070847;23;20018;-87
2022/06/23 03:14:35;;;;;;;0.20;0.10;;;;;;;;;;6071642;23;20014;-87
2022/06/23 03:17:18;;;;;;;0.20;0.10;;;;;;;;;;6071010;23;20014;-89
2022/06/23 03:20:10;;;;;;;0.20;0.10;;;;;;;;;;6072601;23;20020;-89
2022/06/23 03:22:43;;;;;;;0.20;0.10;;;;;;;;;;6070671;23;20096;-88
2022/06/23 03:25:24;;;;;;;0.20;0.20;;;;;;;;;;6071966;23;20014;-88
2022/06/23 03:28:09;;;;;;;0.60;0.10;;;;;;;;;;6069682;23;20061;-88
2022/06/23 03:30:58;;;;;;;0.20;0.10;;;;;;;;;;6069846;23;20010;-89
2022/06/23 03:33:50;;;;;;;0.20;0.10;;;;;;;;;;6071713;23;20010;-89
2022/06/23 03:36:26;;;;;;;0.20;0.10;;;;;;;;;;6156380;23;20471;-88
2022/06/23 03:42:09;;;;;;;0.20;0.10;;;;;;;;;;6175307;23;20016;-88
2022/06/23 03:45:11;;;;;;;0.28;0.17;;;;;;;;;;6181753;23;20091;-87
2022/06/23 03:48:09;;;;;;;0.20;0.10;;;;;;;;;;6171945;23;20102;-89
2022/06/23 03:51:09;;;;;;;0.20;0.10;;;;;;;;;;6154785;23;20016;-89
2022/06/23 03:53:44;;;;;;;0.52;0.52;;;;;;;;;;6184984;23;20020;-89
2022/06/23 03:56:19;;;;;;;0.20;0.10;;;;;;;;;;6184927;23;20067;-89
2022/06/23 03:59:07;;;;;;;0.20;0.10;;;;;;;;;;6183922;23;20052;-89
2022/06/23 04:02:02;;;;;;;0.20;0.10;;;;;;;;;;6207170;23;20361;-87
2022/06/23 04:04:49;;;;;;;0.20;0.10;;;;;;;;;;6183507;23;20248;-87
2022/06/23 04:07:51;;;;;;;0.20;0.20;;;;;;;;;;6184833;23;20328;-88
2022/06/23 04:10:33;;;;;;;0.20;0.10;;;;;;;;;;6064815;23;20012;-88
2022/06/23 04:13:23;;;;;;;0.20;0.20;;;;;;;;;;6184938;23;20274;-88
2022/06/23 04:16:15;;;;;;;0.20;0.10;;;;;;;;;;6166106;23;20092;-89
2022/06/23 04:18:58;;;;;;;0.20;0.10;;;;;;;;;;6184684;23;20016;-87
2022/06/23 04:21:42;;;;;;;0.20;0.10;;;;;;;;;;6183342;23;20009;-88
2022/06/23 04:24:19;;;;;;;0.20;0.10;;;;;;;;;;6183428;23;20012;-88
2022/06/23 04:26:48;;;;;;;0.20;0.10;;;;;;;;;;6183390;23;20012;-88
2022/06/23 04:29:30;;;;;;;0.20;0.10;;;;;;;;;;6179511;23;20268;-88
2022/06/23 04:32:10;;;;;;;0.22;0.17;;;;;;;;;;6180573;23;20051;-89
2022/06/23 04:34:47;;;;;;;0.20;0.20;;;;;;;;;;6176293;23;20503;-88
2022/06/23 04:37:52;;;;;;;0.20;0.10;;;;;;;;;;6124972;23;20020;-88
2022/06/23 04:40:18;;;;;;;0.20;0.10;;;;;;;;;;6068761;23;20020;-88
2022/06/23 04:42:58;;;;;;;0.20;0.10;;;;;;;;;;6119371;23;20013;-88
2022/06/23 04:46:03;;;;;;;0.40;0.32;;;;;;;;;;6123477;23;20020;-88
2022/06/23 04:48:35;;;;;;;0.20;0.10;;;;;;;;;;6050809;23;20012;-88
2022/06/23 04:51:13;;;;;;;0.20;0.10;;;;;;;;;;6124583;23;20024;-89
2022/06/23 04:53:52;;;;;;;0.52;0.52;;;;;;;;;;6128099;23;20017;-89
2022/06/23 04:56:41;;;;;;;0.20;0.10;;;;;;;;;;6127904;23;20012;-88
2022/06/23 04:59:19;;;;;;;0.20;0.10;;;;;;;;;;6128612;23;20389;-88
2022/06/23 05:01:48;;;;;;;0.30;0.28;;;;;;;;;;6126309;23;20089;-89
2022/06/23 05:04:43;;;;;;;0.20;0.20;;;;;;;;;;6124364;23;20096;-90
2022/06/23 05:07:36;;;;;;;0.30;0.17;;;;;;;;;;6123541;23;20119;-90
2022/06/23 05:10:16;;;;;;;0.30;0.22;;;;;;;;;;6127783;23;20057;-90
2022/06/23 05:13:07;;;;;;;0.40;0.40;;;;;;;;;;6126448;23;20059;-88
2022/06/23 05:15:44;;;;;;;0.20;0.10;;;;;;;;;;6122131;23;20013;-87
2022/06/23 05:18:24;;;;;;;2.08;0.50;;;;;;;;;;6102092;23;20099;-88
2022/06/23 05:21:09;;;;;;;0.20;0.10;;;;;;;;;;6099493;23;20493;-90
2022/06/23 05:24:22;;;;;;;0.40;0.35;;;;;;;;;;6098497;23;20328;-90
2022/06/23 05:27:14;;;;;;;0.20;0.20;;;;;;;;;;5952277;24;20012;-89
2022/06/23 05:30:01;;;;;;;1.75;0.75;;;;;;;;;;6012635;23;20011;-89
2022/06/23 05:32:46;;;;;;;0.25;0.25;;;;;;;;;;6012451;23;20015;-90
2022/06/23 05:35:42;;;;;;;0.20;0.10;;;;;;;;;;5958018;23;20022;-89
2022/06/23 05:38:30;;;;;;;0.20;0.10;;;;;;;;;;5981202;23;20019;-88
2022/06/23 05:41:03;;;;;;;0.75;0.47;;;;;;;;;;5980825;23;20019;-87
2022/06/23 05:43:30;;;;;;;0.20;0.10;;;;;;;;;;5986114;23;20019;-88
2022/06/23 05:45:58;;;;;;;0.20;0.10;;;;;;;;;;5984660;23;20417;-88
2022/06/23 05:48:34;;;;;;;0.20;0.10;;;;;;;;;;5982761;23;20023;-87
2022/06/23 05:51:29;;;;;;;0.28;0.28;;;;;;;;;;5984648;23;20051;-88
2022/06/23 05:54:03;;;;;;;0.20;0.10;;;;;;;;;;5987056;23;20023;-89
2022/06/23 05:56:44;;;;;;;0.20;0.10;;;;;;;;;;6011195;23;20056;-89
2022/06/23 05:59:19;;;;;;;0.20;0.10;;;;;;;;;;6091229;23;20018;-90
2022/06/23 06:02:15;;;;;;;0.20;0.10;;;;;;;;;;6093886;23;20010;-89
2022/06/23 06:05:13;;;;;;;0.20;0.00;;;;;;;;;;6065474;23;20014;-87
2022/06/23 06:08:11;;;;;;;0.40;0.17;;;;;;;;;;6107751;23;20447;-90
2022/06/23 06:10:39;;;;;;;0.20;0.10;;;;;;;;;;6093540;23;20037;-90
2022/06/23 06:13:14;;;;;;;0.30;0.20;;;;;;;;;;6068567;23;20046;-89
2022/06/23 06:15:57;;;;;;;0.75;0.65;;;;;;;;;;6092402;23;20040;-88
2022/06/23 06:18:32;;;;;;;0.50;0.45;;;;;;;;;;6094477;23;20025;-88
2022/06/23 06:21:26;;;;;;;0.30;0.30;;;;;;;;;;6092287;23;20110;-90
2022/06/23 06:24:08;;;;;;;0.20;0.10;;;;;;;;;;6093933;23;20491;-88
2022/06/23 06:26:39;;;;;;;0.20;0.20;;;;;;;;;;6134499;23;20021;-88
2022/06/23 06:29:14;;;;;;;0.35;0.32;;;;;;;;;;6145396;23;20044;-89
2022/06/23 06:31:48;;;;;;;0.20;0.10;;;;;;;;;;6153200;23;20059;-87
2022/06/23 06:34:19;;;;;;;0.60;0.35;;;;;;;;;;6153579;23;20020;-88
2022/06/23 06:36:48;;;;;;;0.20;0.17;;;;;;;;;;6124055;23;20449;-88
2022/06/23 06:39:18;;;;;;;0.20;0.20;;;;;;;;;;6124599;23;20021;-88
2022/06/23 06:41:45;;;;;;;0.40;0.35;;;;;;;;;;6122650;23;20046;-88
2022/06/23 06:44:12;;;;;;;0.30;0.20;;;;;;;;;;6120486;23;20234;-89
2022/06/23 06:46:45;;;;;;;0.20;0.10;;;;;;;;;;6125408;23;20546;-90
2022/06/23 06:49:19;;;;;;;0.20;0.10;;;;;;;;;;6124845;23;20017;-88
2022/06/23 06:51:46;;;;;;;0.20;0.15;;;;;;;;;;6124680;23;20024;-87
2022/06/23 06:54:17;;;;;;;0.20;0.10;;;;;;;;;;6098284;23;20017;-90
2022/06/23 06:56:54;;;;;;;0.20;0.20;;;;;;;;;;6124938;23;20017;-89
2022/06/23 06:59:25;;;;;;;0.20;0.10;;;;;;;;;;6133510;23;20021;-87
2022/06/23 07:01:55;;;;;;;0.20;0.10;;;;;;;;;;6126263;23;20135;-88
2022/06/23 07:04:45;;;;;;;0.20;0.10;;;;;;;;;;6125126;23;20020;-88
2022/06/23 07:07:13;;;;;;;0.20;0.10;;;;;;;;;;6115231;23;20017;-89
2022/06/23 07:09:58;;;;;;;0.20;0.10;;;;;;;;;;6126250;23;20023;-88
2022/06/23 07:12:45;;;;;;;0.25;0.17;;;;;;;;;;6125241;23;20044;-88
2022/06/23 07:15:11;;;;;;;0.22;0.13;;;;;;;;;;6126206;23;20044;-88
2022/06/23 07:17:58;;;;;;;0.20;0.20;;;;;;;;;;6127094;23;20029;-87
2022/06/23 07:20:35;;;;;;;0.20;0.10;;;;;;;;;;6115399;23;20058;-87
2022/06/23 07:23:05;;;;;;;0.20;0.10;;;;;;;;;;6124909;23;20055;-88
2022/06/23 07:25:39;;;;;;;0.43;0.30;;;;;;;;;;6120414;23;20013;-88
2022/06/23 07:28:11;;;;;;;0.20;0.10;;;;;;;;;;6147469;23;20084;-88
2022/06/23 07:30:43;;;;;;;0.20;0.20;;;;;;;;;;6123160;23;20018;-88
2022/06/23 07:33:35;;;;;;;0.30;0.28;;;;;;;;;;6124751;23;20014;-87
2022/06/23 07:36:15;;;;;;;0.25;0.15;;;;;;;;;;6123251;23;20467;-88
2022/06/23 07:38:53;;;;;;;1.75;0.82;;;;;;;;;;6124604;23;20088;-90
2022/06/23 07:41:29;;;;;;;0.20;0.10;;;;;;;;;;6121458;23;20398;-89
2022/06/23 07:44:02;;;;;;;1.30;0.32;;;;;;;;;;6122139;23;20014;-87
2022/06/23 07:46:28;;;;;;;;;;;;;;;;;;6123403;23;20490;-86
2022/06/23 07:48:54;;;;;;;0.30;0.20;;;;;;;;;;6124047;23;19922;-87
2022/06/23 07:51:20;;;;;;;0.50;0.50;;;;;;;;;;6098217;23;20029;-89
2022/06/23 07:53:47;;;;;;;0.40;0.30;;;;;;;;;;6120698;23;20024;-88
2022/06/23 07:56:19;;;;;;;0.35;0.30;;;;;;;;;;6146112;23;20463;-88
2022/06/23 07:58:46;;;;;;;1.85;0.30;;;;;;;;;;6122876;23;20469;-89
2022/06/23 08:01:12;;;;;;;0.20;0.20;;;;;;;;;;6124080;23;20125;-88
2022/06/23 08:03:42;;;;;;;0.22;0.22;;;;;;;;;;6120401;23;20398;-85
2022/06/23 08:06:10;;;;;;;0.63;0.63;;;;;;;;;;6126627;23;20025;-89
2022/06/23 08:08:38;;;;;;;0.22;0.20;;;;;;;;;;6121136;23;20096;-88
2022/06/23 08:13:56;;;;;;;0.20;0.10;;;;;;;;;;6147050;23;20021;-89
2022/06/23 08:19:11;;;;;;;1.48;0.55;;;;;;;;;;6145743;23;20327;-87
2022/06/23 08:21:42;;;;;;;0.32;0.30;;;;;;;;;;6122704;23;20474;-86
2022/06/23 08:24:13;;;;;;;0.88;0.85;;;;;;;;;;6122120;23;20017;-85
2022/06/23 08:26:43;;;;;;;0.65;0.55;;;;;;;;;;6146149;23;20566;-90
2022/06/23 08:29:11;;;;;;;0.20;0.10;;;;;;;;;;6123521;23;20013;-88
2022/06/23 08:31:38;;;;;;;0.22;0.22;;;;;;;;;;6123454;23;20431;-88
2022/06/23 08:34:04;;;;;;;0.40;0.20;;;;;;;;;;6121048;23;20018;-88
2022/06/23 08:36:37;;;;;;;0.20;0.17;;;;;;;;;;6121006;23;20056;-86
2022/06/23 08:39:09;;;;;;;0.20;0.10;;;;;;;;;;6122993;23;20092;-89
2022/06/23 08:41:35;;;;;;;0.20;0.13;;;;;;;;;;6121660;23;20597;-87
2022/06/23 08:44:01;;;;;;;0.65;0.45;;;;;;;;;;6119561;23;20089;-87
2022/06/23 08:46:32;;;;;;;0.20;0.20;;;;;;;;;;6147078;23;20021;-89
2022/06/23 08:49:08;;;;;;;0.77;0.45;;;;;;;;;;6123202;23;20013;-87
2022/06/23 08:51:40;;;;;;;0.60;0.60;;;;;;;;;;6122436;23;20013;-88
2022/06/23 08:54:19;;;;;;;0.20;0.10;;;;;;;;;;6118481;23;20022;-91
2022/06/23 08:56:48;;;;;;;0.20;0.10;;;;;;;;;;6068325;23;20022;-88
2022/06/23 08:59:29;;;;;;;0.20;0.10;;;;;;;;;;6068293;23;20022;-87
2022/06/23 09:02:18;;;;;;;0.20;0.10;;;;;;;;;;6070235;23;20064;-88
2022/06/23 09:04:44;;;;;;;0.20;0.10;;;;;;;;;;6056452;23;20010;-90
2022/06/23 09:07:16;;;;;;;0.35;0.30;;;;;;;;;;6069216;23;20360;-87
2022/06/23 09:09:42;;;;;;;;;;;;;;;;;;6070972;23;20395;-86
2022/06/23 09:12:18;;;;;;;0.20;0.10;;;;;;;;;;6066636;23;19921;-88
2022/06/23 09:14:44;;;;;;;0.35;0.30;;;;;;;;;;6067843;23;20018;-86
2022/06/23 09:17:21;;;;;;;6.07;0.70;;;;;;;;;;6069699;23;20100;-86
2022/06/23 09:19:56;;;;;;;0.20;0.10;;;;;;;;;;6091607;23;20343;-87
2022/06/23 09:22:35;;;;;;;0.20;0.20;;;;;;;;;;6068904;23;20010;-86
2022/06/23 09:25:14;;;;;;;0.20;0.10;;;;;;;;;;6067893;23;20142;-89
2022/06/23 09:27:51;;;;;;;4.15;0.63;;;17.90;99.90;;;;;;6068187;23;20018;-86
2022/06/23 09:30:44;;;;;;;0.20;0.10;;;24.40;97.40;;;;;;6068048;23;20017;-86
2022/06/23 09:33:09;;;;;;;;;;;24.30;97.10;;;;;;6068507;23;20018;-88
2022/06/23 09:36:27;;;;;;;0.20;0.20;;;24.30;99.90;;;;;;6067717;23;20227;-90
2022/06/23 09:39:30;;;;;;;0.43;0.30;;;24.30;95.90;;;;;;6066306;23;20014;-87
2022/06/23 09:41:59;;;;;;;0.30;0.30;;;;;;;;;;6071562;23;20292;-87
2022/06/23 09:44:44;;;;;;;0.30;0.30;;;;;;;;;;6067587;23;20073;-87
2022/06/23 09:47:10;;;;;;;0.30;0.20;;;;;;;;;;6067470;23;20022;-88
2022/06/23 09:49:43;;;;;;;0.20;0.10;;;;;;;;;;6067109;23;20100;-87
2022/06/23 09:52:24;;;;;;;0.20;0.10;;;;;;;;;;6070242;23;20355;-90
2022/06/23 09:55:10;;;;;;;0.65;0.32;;;;;;;;;;6084834;23;20017;-88
2022/06/23 09:57:41;;;;;;;0.20;0.17;;;24.40;96.70;;;;;;6098294;23;20451;-85
2022/06/23 10:01:00;;;;;;;0.45;0.45;;;24.80;96.00;;;;;;6098818;23;20014;-88
2022/06/23 10:03:45;;;;;;;0.28;0.20;;;;;;;;;;6073892;23;20056;-88
2022/06/23 10:06:40;;;;;;;0.20;0.10;;;;;;;;;;6097813;23;20014;-87
2022/06/23 10:09:06;;;;;;;0.20;0.10;;;;;;;;;;6080297;23;20455;-86
2022/06/23 10:11:40;;;;;;;0.20;0.10;;;;;;;;;;6099633;23;20068;-86
2022/06/23 10:14:21;;;;;;;0.25;0.15;;;;;;;;;;6097693;23;20037;-88
2022/06/23 10:16:59;;;;;;;0.20;0.10;;;;;;;;;;6100187;23;20014;-87
2022/06/23 10:19:52;;;;;;;5.68;0.25;;;;;;;;;;6097383;23;20096;-88
2022/06/23 10:22:37;;;;;;;0.20;0.10;;;;;;;;;;6121152;23;20013;-86
2022/06/23 10:25:21;;;;;;;0.20;0.10;;;;;;;;;;6097084;23;20059;-87
2022/06/23 10:27:47;;;;;;;0.20;0.10;;;;;;;;;;6099528;23;20410;-87
2022/06/23 10:30:21;;;;;;;0.20;0.20;;;;;;;;;;6098711;23;20018;-88
2022/06/23 10:32:50;;;;;;;0.20;0.10;;;;;;;;;;6098641;23;20013;-86
2022/06/23 10:35:35;;;;;;;0.20;0.10;;;;;;;;;;6097292;23;20543;-88
2022/06/23 10:38:14;;;;;;;0.20;0.10;;;;;;;;;;6098843;23;20028;-85
2022/06/23 10:40:55;;;;;;;0.20;0.20;;;;;;;;;;6097637;23;20013;-87
2022/06/23 10:43:27;;;;;;;0.20;0.10;;;;;;;;;;6097266;23;20029;-86
2022/06/23 10:46:07;;;;;;;0.30;0.25;;;;;;;;;;6097864;23;20013;-90
2022/06/23 10:48:36;;;;;;;0.30;0.20;;;;;;;;;;6103849;23;20009;-87
2022/06/23 10:51:06;;;;;;;0.20;0.10;;;;;;;;;;6099010;23;20017;-88
2022/06/23 10:53:47;;;;;;;3.92;0.35;;;;;;;;;;6094571;23;20018;-87
2022/06/23 10:56:18;;;;;;;0.40;0.40;;;;;;;;;;6098437;23;20024;-89
2022/06/23 10:59:03;;;;;;;1.30;0.65;;;;;;;;;;6099212;23;20013;-88
2022/06/23 11:01:48;;;;;;;0.22;0.22;;;;;;;;;;6099376;23;20017;-88
2022/06/23 11:04:33;;;;;;;0.30;0.20;;;;;;;;;;6096991;23;20016;-88
2022/06/23 11:07:05;;;;;;;0.30;0.20;;;;;;;;;;6096582;23;20024;-89
2022/06/23 11:09:34;;;;;;;0.43;0.40;;;;;;;;;;6122711;23;20339;-87
2022/06/23 11:12:23;;;;;;;0.22;0.10;;;;;;;;;;6098183;23;20025;-87
2022/06/23 11:14:59;;;;;;;0.20;0.20;;;;;;;;;;6083647;23;20025;-89
2022/06/23 11:17:29;;;;;;;0.20;0.13;;;;;;;;;;6098597;23;20043;-88
2022/06/23 11:19:55;;;;;;;0.20;0.10;;;;;;;;;;6098554;23;20009;-88
2022/06/23 11:22:31;;;;;;;0.35;0.17;;;;;;;;;;6100650;23;20045;-88
2022/06/23 11:25:09;;;;;;;0.20;0.20;;;;;;;;;;6097563;23;20013;-88
2022/06/23 11:27:54;;;;;;;0.20;0.20;;;;;;;;;;6097193;23;20021;-88
2022/06/23 11:30:39;;;;;;;0.35;0.15;;;;;;;;;;6099187;23;20028;-86
2022/06/23 11:33:23;;;;;;;0.20;0.10;;;;;;;;;;6098640;23;20056;-88
2022/06/23 11:36:08;;;;;;;0.20;0.10;;;;;;;;;;6097078;23;20057;-86
2022/06/23 11:38:50;;;;;;;0.20;0.08;;;;;;;;;;6098613;23;20010;-86
2022/06/23 11:41:25;;;;;;;0.20;0.20;;;;;;;;;;6120965;23;20009;-86
2022/06/23 11:44:02;;;;;;;0.45;0.20;;;;;;;;;;6097814;23;20104;-87
2022/06/23 11:46:33;;;;;;;0.20;0.10;;;;;;;;;;6097262;23;20052;-86
2022/06/23 11:48:59;;;;;;;0.20;0.10;;;;;;;;;;6098567;23;20014;-87
2022/06/23 11:51:32;;;;;;;0.20;0.17;;;;;;;;;;6098890;23;20025;-85
2022/06/23 11:54:17;;;;;;;0.38;0.20;;;;;;;;;;6094970;23;20111;-86
2022/06/23 11:56:58;;;;;;;0.20;0.10;;;;;;;;;;6097328;23;20024;-88
2022/06/23 11:59:27;;;;;;;0.20;0.10;;;;;;;;;;6097588;23;20017;-87
2022/06/23 12:01:54;;;;;;;0.30;0.10;;;;;;;;;;6097783;23;20055;-88
2022/06/23 12:04:21;;;;;;;0.20;0.10;;;;;;;;;;6097459;23;20036;-85
2022/06/23 12:07:06;;;;;;;0.20;0.10;;;;;;;;;;6098509;23;20017;-87
2022/06/23 12:09:47;;;;;;;0.20;0.10;;;;;;;;;;6096717;23;20021;-87
2022/06/23 12:12:14;;;;;;;1.60;0.67;;;;;;;;;;6097891;23;20336;-87
2022/06/23 12:14:40;;;;;;;0.20;0.10;;;;;;;;;;6095977;23;20021;-87
2022/06/23 12:17:43;;;;;;;0.30;0.20;;;;;;;;;;6098108;23;20014;-88
2022/06/23 12:20:25;;;;;;;0.20;0.10;;;;;;;;;;6009787;23;20019;-86
2022/06/23 12:22:58;;;;;;;0.20;0.20;;;;;;;;;;6094654;23;20339;-88
2022/06/23 12:25:33;;;;;;;0.20;0.10;;;;;;;;;;6098097;23;20119;-87
2022/06/23 12:28:09;;;;;;;0.20;0.17;;;;;;;;;;6097943;23;20048;-87
2022/06/23 12:30:39;;;;;;;0.20;0.10;;;;;;;;;;6095396;23;20024;-87
2022/06/23 12:33:17;;;;;;;0.30;0.20;;;;;;;;;;6099360;23;20438;-87
2022/06/23 12:35:44;;;;;;;0.20;0.15;;;;;;;;;;6093752;23;20455;-87
2022/06/23 12:38:16;;;;;;;0.20;0.10;;;;;;;;;;6096487;23;20025;-86
2022/06/23 12:40:51;;;;;;;0.20;0.10;;;;;;;;;;6096937;23;20014;-88
2022/06/23 12:43:23;;;;;;;0.20;0.20;;;;;;;;;;6120309;23;20018;-87
2022/06/23 12:45:50;;;;;;;;;;;;;;;;;;6096218;23;20047;-88
2022/06/23 12:48:27;;;;;;;0.30;0.20;;;;;;;;;;6096932;23;19920;-90
2022/06/23 12:51:16;;;;;;;0.30;0.20;;;;;;;;;;6100031;23;20013;-88
2022/06/23 12:53:54;;;;;;;0.20;0.10;;;;;;;;;;6098095;23;20024;-87
2022/06/23 12:56:32;;;;;;;0.20;0.10;;;;;;;;;;6097611;23;20021;-85
2022/06/23 12:59:07;;;;;;;0.20;0.15;;;;;;;;;;6094907;23;20029;-88
2022/06/23 13:01:43;;;;;;;0.20;0.10;;;;;;;;;;6096457;23;20096;-86
2022/06/23 13:04:13;;;;;;;0.20;0.10;;;;;;;;;;6096634;23;20044;-88
2022/06/23 13:06:39;;;;;;;0.90;0.40;;;;;;;;;;6101344;23;20017;-88
2022/06/23 13:09:27;;;;;;;0.40;0.35;;;;;;;;;;6097648;23;20354;-86
2022/06/23 13:12:06;;;;;;;0.20;0.20;;;;;;;;;;6099072;23;20019;-89
2022/06/23 13:14:51;;;;;;;0.40;0.40;;;;;;;;;;6098011;23;20442;-88
2022/06/23 13:17:34;;;;;;;0.60;0.60;;;;;;;;;;6100333;23;20064;-89
2022/06/23 13:20:07;;;;;;;0.30;0.20;;;;;;;;;;6098302;23;20009;-87
2022/06/23 13:22:53;;;;;;;0.70;0.70;;;;;;;;;;6099171;23;20010;-87
2022/06/23 13:25:23;;;;;;;0.20;0.10;;;;;;;;;;6099054;23;20013;-90
2022/06/23 13:27:50;;;;;;;0.22;0.22;;;;;;;;;;6102284;23;20119;-87
2022/06/23 13:30:17;;;;;;;0.20;0.17;;;;;;;;;;6099435;23;20096;-86
2022/06/23 13:33:05;;;;;;;0.20;0.15;;;;;;;;;;6098689;23;20065;-87
2022/06/23 13:35:35;;;;;;;0.20;0.20;;;;;;;;;;6099957;23;20686;-86
2022/06/23 13:38:18;;;;;;;0.20;0.20;;;;;;;;;;6096463;23;20056;-86
2022/06/23 13:41:04;;;;;;;0.20;0.17;;;;;;;;;;6100870;23;20010;-88
2022/06/23 13:43:30;;;;;;;1.10;0.38;;;;;;;;;;6100558;23;20525;-89
2022/06/23 13:46:06;;;;;;;0.30;0.30;;;;;;;;;;6100645;23;20061;-86
2022/06/23 13:48:32;;;;;;;0.30;0.30;;;;;;;;;;6099877;23;20104;-86
2022/06/23 13:51:08;;;;;;;0.35;0.30;;;;;;;;;;6098175;23;20147;-87
2022/06/23 13:53:34;;;;;;;0.20;0.20;;;;;;;;;;6099241;23;20105;-88
2022/06/23 13:56:19;;;;;;;0.40;0.30;;;;;;;;;;6099682;23;20447;-87
2022/06/23 13:58:48;;;;;;;0.57;0.30;;;;;;;;;;6100188;23;20016;-87
2022/06/23 14:01:32;;;;;;;0.20;0.20;;;;;;;;;;6098974;23;20048;-85
2022/06/23 14:04:15;;;;;;;0.20;0.10;;;;;;;;;;6099809;23;20096;-87
2022/06/23 14:06:44;;;;;;;0.20;0.10;;;;;;;;;;6122022;23;20017;-85
2022/06/23 14:09:13;;;;;;;0.35;0.20;;;;;;;;;;6100349;23;20333;-88
2022/06/23 14:11:53;;;;;;;0.25;0.25;;;;;;;;;;6101175;23;20013;-87
2022/06/23 14:14:24;;;;;;;0.25;0.20;;;;;;;;;;6098218;23;20021;-87
2022/06/23 14:17:03;;;;;;;0.30;0.30;;;;;;;;;;6100368;23;20017;-88
2022/06/23 14:19:41;;;;;;;0.30;0.30;;;;;;;;;;6097414;23;20013;-86
2022/06/23 14:22:26;;;;;;;0.63;0.50;;;;;;;;;;6099684;23;20009;-87
2022/06/23 14:24:56;;;;;;;0.63;0.30;;;;;;;;;;6097321;23;20024;-86
2022/06/23 14:27:33;;;;;;;0.43;0.43;;;;;;;;;;6101349;23;20120;-89
2022/06/23 14:30:19;;;;;;;0.30;0.30;;;;;;;;;;6099672;23;20024;-88
2022/06/23 14:32:54;;;;;;;0.20;0.10;;;;;;;;;;6099972;23;20067;-90
2022/06/23 14:35:33;;;;;;;0.20;0.10;;;;;;;;;;6096223;23;20014;-86
2022/06/23 14:38:02;;;;;;;0.20;0.10;;;;;;;;;;6100043;23;20092;-88
2022/06/23 14:40:40;;;;;;;0.47;0.35;;;;;;;;;;6098580;23;20354;-87
2022/06/23 14:43:09;;;;;;;2.65;0.75;;;;;;;;;;6122345;23;20010;-87
2022/06/23 14:45:44;;;;;;;0.30;0.28;;;;;;;;;;6099031;23;20010;-90
2022/06/23 14:48:26;;;;;;;0.20;0.20;;;;;;;;;;6100905;23;20048;-90
2022/06/23 14:51:04;;;;;;;0.52;0.30;;;;;;;;;;6105863;23;20016;-89
2022/06/23 14:53:53;;;;;;;0.20;0.20;;;;;;;;;;6099815;23;20014;-86
2022/06/23 14:56:38;;;;;;;0.40;0.40;;;;;;;;;;6112669;23;20026;-91
2022/06/23 14:59:22;;;;;;;2.85;0.57;;;;;;;;;;6100926;23;20472;-86
2022/06/23 15:02:01;;;;;;;0.20;0.10;;;;;;;;;;6100188;23;20459;-88
2022/06/23 15:04:37;;;;;;;0.30;0.28;;;;;;;;;;6101494;23;20141;-88
2022/06/23 15:07:19;;;;;;;0.43;0.30;;;;;;;;;;6100775;23;20028;-89
2022/06/23 15:09:54;;;;;;;0.22;0.22;;;;;;;;;;6101000;23;20443;-88
2022/06/23 15:12:23;;;;;;;0.20;0.10;;;;;;;;;;6100947;23;20013;-90
2022/06/23 15:15:00;;;;;;;0.20;0.13;;;;;;;;;;6099099;23;20117;-88
2022/06/23 15:17:29;;;;;;;0.20;0.13;;;;;;;;;;6097984;23;20044;-88
2022/06/23 15:19:57;;;;;;;0.35;0.35;;;;;;;;;;6100479;23;20017;-91
2022/06/23 15:25:51;;;;;;;0.30;0.20;;;;;;;;;;6122792;23;20116;-89
2022/06/23 15:28:20;;;;;;;0.55;0.40;;;;;;;;;;6100029;23;20017;-87
2022/06/23 15:30:56;;;;;;;0.65;0.40;;;;;;;;;;6099352;23;20045;-89
2022/06/23 15:36:19;;;;;;;0.30;0.30;;;;;;;;;;6121066;23;19921;-88
2022/06/23 15:38:46;;;;;;;0.40;0.40;;;;;;;;;;6097638;23;20017;-88
2022/06/23 15:41:30;;;;;;;1.23;0.32;;;;;;;;;;6098793;23;20010;-88
2022/06/23 15:44:02;;;;;;;0.45;0.30;;;;;;;;;;6098987;23;20013;-88
2022/06/23 15:46:48;;;;;;;0.30;0.30;;;;;;;;;;6097695;23;20521;-88
2022/06/23 15:49:20;;;;;;;0.40;0.40;;;;;;;;;;6099097;23;20017;-88
2022/06/23 15:51:53;;;;;;;0.30;0.25;;;;;;;;;;6098308;23;20650;-87
2022/06/23 15:54:34;;;;;;;1.30;0.40;;;;;;;;;;6099743;23;20386;-89
2022/06/23 15:57:07;;;;;;;0.25;0.25;;;;;;;;;;6100984;23;20014;-89
2022/06/23 15:59:36;;;;;;;0.32;0.25;;;;;;;;;;6102625;23;20009;-89
2022/06/23 16:02:07;;;;;;;0.20;0.17;;;;;;;;;;6100398;23;20013;-88
2022/06/23 16:04:41;;;;;;;0.60;0.52;;;;;;;;;;6099246;23;20013;-89